Time;durP1;ratioP1;P1;durP2;ratioP2;P2;SDS_P1;SDS_P2;PMS_P1;PMS_P2;Temp;Humidity;BMP_temperature;BMP_pressure;BME280_temperature;BME280_humidity;BME280_pressure;Samples;Min_cycle;Max_cycle;Signal;HPM_P1;HPM_P2
2021/10/06 00:01:39;;;;;;;5.97;4.83;;;;;;;16.80;53.14;96372.23;1834981;77;22125;-85
2021/10/06 00:04:05;;;;;;;6.10;4.47;;;;;;;16.92;52.76;96378.86;1805670;79;20987;-85
2021/10/06 00:06:30;;;;;;;8.85;5.00;;;;;;;16.93;53.00;96390.95;1837173;77;20991;-86
2021/10/06 00:08:56;;;;;;;6.28;4.45;;;;;;;16.92;52.42;96379.34;1812930;77;21107;-85
2021/10/06 00:11:22;;;;;;;6.92;5.30;;;;;;;16.94;51.83;96385.20;1782805;80;21009;-85
2021/10/06 00:13:48;;;;;;;5.05;4.05;;;;;;;17.03;51.08;96381.23;1782968;79;21064;-86
2021/10/06 00:16:15;;;;;;;6.45;4.25;;;;;;;17.09;51.33;96381.67;1784126;79;21466;-85
2021/10/06 00:18:45;;;;;;;6.22;4.12;;;;;;;17.14;51.59;96397.55;1784805;80;21035;-85
2021/10/06 00:21:11;;;;;;;10.72;4.08;;;;;;;17.18;50.57;96390.82;1784975;80;21111;-85
2021/10/06 00:23:36;;;;;;;5.22;4.72;;;;;;;17.24;50.17;96399.11;1788936;79;21016;-84
2021/10/06 00:26:03;;;;;;;5.22;4.28;;;;;;;17.29;50.38;96384.81;1784170;79;21039;-85
2021/10/06 00:30:55;;;;;;;8.00;4.92;;;;;;;17.32;49.26;96390.93;1785260;80;21438;-85
2021/10/06 00:33:21;;;;;;;4.97;4.47;;;;;;;17.38;48.88;96407.09;1782769;80;21146;-85
2021/10/06 00:35:47;;;;;;;7.20;4.53;;;;;;;17.42;48.77;96402.73;1782772;79;21025;-85
2021/10/06 00:38:12;;;;;;;6.37;4.53;;;;;;;17.44;48.82;96409.88;1800711;77;20992;-85
2021/10/06 00:40:38;;;;;;;6.55;4.90;;;;;;;17.45;48.35;96403.59;1836252;77;21101;-86
2021/10/06 00:43:04;;;;;;;5.62;4.35;;;;;;;17.48;48.39;96421.02;1853635;76;21381;-85
2021/10/06 00:45:30;;;;;;;6.40;4.08;;;;;;;17.50;47.83;96420.79;1812675;75;21101;-85
2021/10/06 00:47:55;;;;;;;5.42;4.30;;;;;;;17.52;47.85;96423.98;1809997;77;21044;-86
2021/10/06 00:50:21;;;;;;;5.83;4.72;;;;;;;17.52;47.74;96425.30;1788556;79;21440;-86
2021/10/06 00:52:47;;;;;;;5.20;4.67;;;;;;;17.50;48.03;96418.16;1827143;77;21082;-85
2021/10/06 00:55:14;;;;;;;5.33;4.83;;;;;;;17.50;47.62;96425.53;1801335;79;21054;-86
2021/10/06 00:57:40;;;;;;;8.15;4.90;;;;;;;17.48;47.31;96435.47;1799655;77;21081;-86
2021/10/06 01:00:07;;;;;;;7.28;5.10;;;;;;;17.47;47.16;96435.17;1855066;77;21046;-85
2021/10/06 01:02:33;;;;;;;6.00;4.55;;;;;;;17.48;46.85;96451.22;1862584;76;20999;-85
2021/10/06 01:04:59;;;;;;;8.90;4.95;;;;;;;17.50;46.53;96442.60;1782666;78;21221;-86
2021/10/06 01:07:24;;;;;;;6.97;4.55;;;;;;;17.52;47.04;96443.18;1784353;79;21404;-85
2021/10/06 01:09:52;;;;;;;6.78;4.55;;;;;;;17.52;46.52;96427.93;1821826;77;21062;-85
2021/10/06 01:12:19;;;;;;;5.03;4.25;;;;;;;17.53;46.78;96419.02;1802728;77;21052;-86
2021/10/06 01:14:46;;;;;;;6.20;4.85;;;;;;;17.52;46.74;96434.50;1796149;77;21374;-86
2021/10/06 01:17:12;;;;;;;7.50;4.37;;;;;;;17.51;46.77;96415.31;1840065;77;21041;-86
2021/10/06 01:19:38;;;;;;;5.40;4.22;;;;;;;17.51;46.38;96413.20;1823390;76;21420;-86
2021/10/06 01:22:03;;;;;;;7.08;4.55;;;;;;;17.49;46.81;96408.17;1798714;77;21083;-86
2021/10/06 01:24:29;;;;;;;6.87;4.80;;;;;;;17.46;46.51;96419.13;1782150;79;21020;-85
2021/10/06 01:26:56;;;;;;;8.38;4.47;;;;;;;17.44;46.99;96394.91;1797140;79;21462;-86
2021/10/06 01:29:22;;;;;;;8.35;4.50;;;;;;;17.41;46.74;96398.00;1783573;80;21090;-85
2021/10/06 01:31:48;;;;;;;6.15;4.60;;;;;;;17.39;46.34;96401.33;1831675;77;21499;-86
2021/10/06 01:34:17;;;;;;;7.90;5.33;;;;;;;17.38;46.99;96397.91;1791606;78;21115;-86
2021/10/06 01:39:11;;;;;;;8.25;4.83;;;;;;;17.35;47.04;96386.54;1785020;80;21501;-85
2021/10/06 01:41:39;;;;;;;5.92;4.58;;;;;;;17.32;47.62;96386.19;1783209;79;21115;-85
2021/10/06 01:44:05;;;;;;;6.78;4.42;;;;;;;17.29;46.93;96380.87;1807238;78;21055;-85
2021/10/06 01:46:31;;;;;;;6.15;4.87;;;;;;;17.29;47.32;96402.40;1816402;77;21125;-85
2021/10/06 01:48:57;;;;;;;6.40;5.37;;;;;;;17.29;47.18;96388.76;1834181;77;21033;-85
2021/10/06 01:51:24;;;;;;;6.37;4.97;;;;;;;17.28;46.76;96386.36;1817015;77;21064;-86
2021/10/06 01:53:50;;;;;;;7.78;5.12;;;;;;;17.28;46.99;96383.73;1807935;77;21475;-85
2021/10/06 01:56:15;;;;;;;5.53;4.33;;;;;;;17.26;46.84;96362.95;1797328;78;20992;-85
2021/10/06 01:58:45;;;;;;;5.42;4.67;;;;;;;17.27;46.76;96352.73;1818229;77;21200;-85
2021/10/06 02:01:11;;;;;;;8.08;4.37;;;;;;;17.28;46.71;96367.98;1841276;77;21153;-85
2021/10/06 02:03:37;;;;;;;7.15;5.40;;;;;;;17.29;46.64;96345.43;1838950;77;21118;-86
2021/10/06 02:06:02;;;;;;;6.15;4.72;;;;;;;17.29;46.70;96344.11;1839597;77;21136;-85
2021/10/06 02:08:28;;;;;;;6.42;4.12;;;;;;;17.28;46.64;96332.02;1825861;77;21460;-86
2021/10/06 02:10:54;;;;;;;6.45;4.90;;;;;;;17.27;46.57;96333.04;1826150;77;21123;-86
2021/10/06 02:13:19;;;;;;;9.43;5.00;;;;;;;17.29;46.37;96340.17;1825878;77;21092;-86
2021/10/06 02:15:47;;;;;;;5.33;4.20;;;;;;;17.31;46.34;96339.44;1835739;77;21473;-85
2021/10/06 02:18:13;;;;;;;8.68;5.10;;;;;;;17.34;46.12;96338.18;1829983;77;21176;-85
2021/10/06 02:20:39;;;;;;;6.47;5.08;;;;;;;17.36;46.47;96356.63;1804685;77;21089;-85
2021/10/06 02:23:05;;;;;;;5.20;4.25;;;;;;;17.37;46.25;96330.64;1812391;77;21196;-85
2021/10/06 02:25:30;;;;;;;6.47;5.12;;;;;;;17.38;45.97;96332.25;1793097;79;21019;-85
2021/10/06 02:27:56;;;;;;;7.17;5.05;;;;;;;17.37;46.10;96342.47;1790619;78;21065;-85
2021/10/06 02:30:22;;;;;;;8.33;5.42;;;;;;;17.36;46.53;96349.26;1835895;77;21079;-85
2021/10/06 02:32:48;;;;;;;5.20;4.60;;;;;;;17.36;46.54;96362.39;1826187;77;21085;-85
2021/10/06 02:35:13;;;;;;;7.78;4.95;;;;;;;17.33;46.40;96386.48;1836541;77;21130;-85
2021/10/06 02:37:40;;;;;;;6.80;4.35;;;;;;;17.33;46.62;96374.66;1825451;77;21024;-85
2021/10/06 02:40:08;;;;;;;5.50;4.87;;;;;;;17.34;46.36;96381.52;1825762;77;21477;-85
2021/10/06 02:42:34;;;;;;;7.00;4.67;;;;;;;17.34;46.23;96378.38;1831059;77;21060;-85
2021/10/06 02:44:59;;;;;;;6.00;5.40;;;;;;;17.35;46.47;96390.99;1816777;77;21053;-86
2021/10/06 02:47:26;;;;;;;6.53;4.83;;;;;;;17.33;46.91;96389.11;1793036;78;21092;-85
2021/10/06 02:49:52;;;;;;;6.55;4.83;;;;;;;17.30;46.92;96389.56;1808270;77;21098;-85
2021/10/06 02:52:18;;;;;;;6.30;4.65;;;;;;;17.29;47.02;96401.09;1827548;77;21371;-85
2021/10/06 02:54:43;;;;;;;6.80;4.83;;;;;;;17.27;47.24;96401.31;1837625;77;21011;-85
2021/10/06 02:57:09;;;;;;;6.22;4.50;;;;;;;17.23;47.18;96392.26;1841396;77;21063;-86
2021/10/06 02:59:35;;;;;;;7.17;4.97;;;;;;;17.20;47.30;96390.08;1827810;77;21466;-85
2021/10/06 03:02:01;;;;;;;6.70;5.15;;;;;;;17.17;47.59;96386.59;1808512;77;21055;-85
2021/10/06 03:04:26;;;;;;;6.10;4.60;;;;;;;17.14;47.27;96388.87;1816015;77;21085;-85
2021/10/06 03:06:52;;;;;;;7.03;5.25;;;;;;;17.13;48.21;96390.70;1821962;76;21027;-85
2021/10/06 03:09:18;;;;;;;7.70;5.33;;;;;;;17.08;48.10;96390.54;1845585;76;21015;-85
2021/10/06 03:11:44;;;;;;;6.05;4.95;;;;;;;17.02;48.57;96383.05;1795978;79;21118;-85
2021/10/06 03:14:10;;;;;;;8.90;5.20;;;;;;;16.99;49.16;96397.94;1806282;78;21007;-86
2021/10/06 03:16:35;;;;;;;8.20;5.10;;;;;;;16.95;48.59;96398.61;1806381;78;21083;-85
2021/10/06 03:19:02;;;;;;;6.92;4.75;;;;;;;16.92;48.97;96403.80;1827635;77;21481;-85
2021/10/06 03:21:28;;;;;;;7.12;4.83;;;;;;;16.89;49.70;96407.34;1836442;77;21110;-86
2021/10/06 03:23:54;;;;;;;8.20;5.03;;;;;;;16.80;50.36;96416.05;1835969;77;21124;-85
2021/10/06 03:26:19;;;;;;;5.60;5.08;;;;;;;16.71;50.41;96418.14;1787246;78;21537;-85
2021/10/06 03:28:45;;;;;;;5.78;4.15;;;;;;;16.62;51.68;96411.57;1783336;79;21505;-85
2021/10/06 03:31:11;;;;;;;6.72;5.00;;;;;;;16.51;50.27;96393.93;1783232;79;21190;-85
2021/10/06 03:33:36;;;;;;;5.83;4.87;;;;;;;16.48;52.14;96404.35;1783422;80;21174;-85
2021/10/06 03:36:03;;;;;;;6.35;4.95;;;;;;;16.44;51.30;96392.70;1782891;80;21040;-86
2021/10/06 03:38:30;;;;;;;7.03;5.12;;;;;;;16.44;51.91;96401.08;1794322;77;21024;-85
2021/10/06 03:40:56;;;;;;;5.85;5.00;;;;;;;16.39;52.44;96401.71;1784827;79;21501;-85
2021/10/06 03:43:22;;;;;;;11.78;5.75;;;;;;;16.33;54.51;96398.66;1797975;77;21113;-85
2021/10/06 03:45:47;;;;;;;5.35;4.78;;;;;;;16.24;54.74;96401.77;1825185;77;21042;-85
2021/10/06 03:48:13;;;;;;;6.75;4.80;;;;;;;16.20;53.95;96390.91;1839828;77;21450;-85
2021/10/06 03:50:39;;;;;;;6.15;5.28;;;;;;;16.21;54.09;96397.76;1784712;79;21059;-86
2021/10/06 03:53:05;;;;;;;5.17;4.60;;;;;;;16.21;53.11;96397.25;1783325;80;21041;-85
2021/10/06 03:55:30;;;;;;;7.47;4.85;;;;;;;16.26;53.06;96428.56;1782641;80;21833;-85
2021/10/06 03:57:56;;;;;;;6.92;4.90;;;;;;;16.30;52.72;96421.38;1781435;80;21028;-85
2021/10/06 04:02:47;;;;;;;6.00;5.25;;;;;;;16.37;52.82;96437.04;1757502;80;21432;-86
2021/10/06 04:05:13;;;;;;;8.08;4.83;;;;;;;16.35;52.73;96449.06;1807057;77;21041;-85
2021/10/06 04:07:39;;;;;;;6.30;5.10;;;;;;;16.36;53.00;96465.59;1801477;77;20988;-85
2021/10/06 04:10:05;;;;;;;7.80;5.42;;;;;;;16.30;54.64;96473.82;1800489;78;21621;-85
2021/10/06 04:12:31;;;;;;;6.53;5.85;;;;;;;16.18;56.19;96479.46;1799734;77;21110;-85
2021/10/06 04:14:57;;;;;;;6.87;5.60;;;;;;;16.05;56.94;96482.98;1813758;77;21522;-85
2021/10/06 04:17:23;;;;;;;6.65;5.87;;;;;;;15.89;60.35;96475.64;1828086;77;21075;-84
2021/10/06 04:19:48;;;;;;;7.60;6.05;;;;;;;15.68;61.37;96479.92;1828119;77;21225;-85
2021/10/06 04:22:14;;;;;;;7.03;5.28;;;;;;;15.52;63.12;96474.65;1769256;79;21059;-85
2021/10/06 04:24:40;;;;;;;7.72;5.53;;;;;;;15.38;64.17;96473.91;1810838;76;21474;-85
2021/10/06 04:27:06;;;;;;;7.42;5.50;;;;;;;15.21;64.96;96474.89;1783389;80;21147;-85
2021/10/06 04:29:31;;;;;;;6.85;5.78;;;;;;;15.12;66.65;96472.70;1777125;80;21111;-85
2021/10/06 04:31:57;;;;;;;7.47;5.60;;;;;;;14.98;66.09;96474.59;1783346;80;21096;-85
2021/10/06 04:34:23;;;;;;;9.65;5.83;;;;;;;14.91;66.71;96471.19;1775875;80;21060;-85
2021/10/06 04:36:49;;;;;;;7.83;5.05;;;;;;;14.87;67.98;96481.77;1789722;77;21056;-85
2021/10/06 04:39:15;;;;;;;6.70;5.65;;;;;;;14.80;67.74;96487.50;1837868;77;21376;-85
2021/10/06 04:41:40;;;;;;;6.42;5.22;;;;;;;14.75;68.91;96487.33;1839006;77;21044;-85
2021/10/06 04:44:06;;;;;;;7.62;6.40;;;;;;;14.65;68.81;96492.49;1816984;77;21013;-84
2021/10/06 04:46:32;;;;;;;7.30;6.03;;;;;;;14.60;68.83;96492.78;1808512;78;21436;-84
2021/10/06 04:48:58;;;;;;;6.42;4.83;;;;;;;14.55;69.67;96493.91;1792678;78;21173;-85
2021/10/06 04:51:24;;;;;;;8.50;5.47;;;;;;;14.47;69.82;96508.48;1793325;80;21120;-85
2021/10/06 04:53:50;;;;;;;7.42;6.47;;;;;;;14.50;70.47;96513.33;1794308;79;21803;-85
2021/10/06 04:56:16;;;;;;;7.05;6.15;;;;;;;14.51;70.64;96514.44;1793218;77;21040;-85
2021/10/06 04:58:41;;;;;;;6.62;6.00;;;;;;;14.47;71.19;96507.98;1784977;80;21034;-85
2021/10/06 05:01:08;;;;;;;5.97;5.47;;;;;;;14.41;71.03;96516.11;1812078;77;21062;-84
2021/10/06 05:03:34;;;;;;;6.97;5.78;;;;;;;14.39;71.61;96516.02;1805838;77;21080;-85
2021/10/06 05:05:59;;;;;;;8.55;5.65;;;;;;;14.36;71.58;96521.15;1784681;79;21235;-84
2021/10/06 05:08:25;;;;;;;8.53;4.87;;;;;;;14.33;72.37;96527.29;1804146;77;21495;-84
2021/10/06 05:10:51;;;;;;;7.87;5.90;;;;;;;14.29;72.12;96530.78;1827364;77;21059;-84
2021/10/06 05:13:17;;;;;;;8.73;6.03;;;;;;;14.25;72.15;96531.39;1784910;78;21013;-84
2021/10/06 05:18:07;;;;;;;7.47;5.87;;;;;;;14.12;73.27;96530.38;1784239;79;21085;-84
2021/10/06 05:20:33;;;;;;;7.25;5.53;;;;;;;14.07;73.00;96529.38;1810470;76;21031;-84
2021/10/06 05:22:59;;;;;;;7.50;5.37;;;;;;;14.08;73.49;96530.98;1813937;78;21423;-85
2021/10/06 05:25:24;;;;;;;7.10;4.87;;;;;;;14.07;73.32;96547.66;1790268;78;21077;-84
2021/10/06 05:27:51;;;;;;;8.00;5.87;;;;;;;14.09;73.64;96545.66;1784700;80;21092;-84
2021/10/06 05:30:17;;;;;;;7.20;6.05;;;;;;;14.07;73.90;96546.36;1812375;77;21123;-84
2021/10/06 05:32:43;;;;;;;7.12;6.17;;;;;;;14.04;73.90;96540.23;1796824;79;21099;-84
2021/10/06 05:35:09;;;;;;;7.20;5.75;;;;;;;14.04;74.29;96536.31;1784143;78;21133;-84
2021/10/06 05:37:36;;;;;;;7.00;5.60;;;;;;;13.99;74.00;96540.84;1783724;78;21042;-84
2021/10/06 05:40:04;;;;;;;7.28;5.75;;;;;;;14.01;74.48;96538.02;1800870;78;21476;-84
2021/10/06 05:42:30;;;;;;;6.60;5.92;;;;;;;13.98;73.82;96534.47;1783778;80;21437;-84
2021/10/06 05:44:55;;;;;;;7.25;6.03;;;;;;;13.97;74.38;96541.51;1782706;79;21018;-84
2021/10/06 05:47:21;;;;;;;7.47;6.60;;;;;;;13.90;73.83;96538.59;1783891;80;21033;-84
2021/10/06 05:49:47;;;;;;;6.62;5.92;;;;;;;13.86;74.01;96549.95;1783589;80;22182;-84
2021/10/06 05:52:12;;;;;;;7.92;5.65;;;;;;;13.84;73.67;96551.16;1781658;80;21209;-84
2021/10/06 05:54:38;;;;;;;7.00;5.50;;;;;;;13.82;74.09;96552.62;1784549;80;20982;-84
2021/10/06 05:57:04;;;;;;;5.62;5.03;;;;;;;13.83;73.30;96552.96;1827540;77;21365;-83
2021/10/06 05:59:31;;;;;;;6.58;5.87;;;;;;;13.86;74.07;96551.25;1792857;78;21008;-84
2021/10/06 06:01:57;;;;;;;6.35;5.75;;;;;;;13.87;73.61;96556.78;1788821;79;21132;-84
2021/10/06 06:04:25;;;;;;;7.12;5.95;;;;;;;13.90;74.44;96567.33;1820226;77;21139;-84
2021/10/06 06:06:50;;;;;;;7.30;6.67;;;;;;;13.90;73.27;96565.52;1828682;77;21446;-84
2021/10/06 06:09:20;;;;;;;7.65;5.83;;;;;;;13.92;73.17;96573.96;1828486;77;21249;-84
2021/10/06 06:11:44;;;;;;;6.62;5.85;;;;;;;13.94;73.23;96577.67;1813489;77;21031;-83
2021/10/06 06:14:11;;;;;;;6.97;5.28;;;;;;;13.98;73.19;96582.80;1786219;79;21076;-84
2021/10/06 06:16:37;;;;;;;6.78;5.55;;;;;;;13.99;72.69;96581.33;1814422;77;21095;-84
2021/10/06 06:19:02;;;;;;;5.97;5.30;;;;;;;14.03;73.46;96589.06;1796294;77;21038;-84
2021/10/06 06:21:28;;;;;;;7.47;5.80;;;;;;;14.02;72.96;96598.41;1827314;77;21030;-84
2021/10/06 06:23:54;;;;;;;8.68;6.87;;;;;;;14.00;72.51;96601.73;1797749;78;21064;-84
2021/10/06 06:26:19;;;;;;;8.18;5.42;;;;;;;14.00;73.42;96611.67;1784578;79;21070;-83
2021/10/06 06:28:45;;;;;;;7.17;5.17;;;;;;;13.98;73.19;96608.93;1784069;79;21062;-84
2021/10/06 06:31:11;;;;;;;8.10;6.20;;;;;;;14.01;73.36;96616.39;1784037;80;21046;-84
2021/10/06 06:33:37;;;;;;;7.05;5.60;;;;;;;14.01;74.30;96610.67;1782806;80;21026;-83
2021/10/06 06:38:30;;;;;;;8.80;6.03;;;;;;;14.06;73.37;96615.30;1783011;80;21090;-84
2021/10/06 06:40:56;;;;;;;6.62;6.03;;;;;;;14.08;74.47;96617.20;1827995;77;21056;-84
2021/10/06 06:43:22;;;;;;;7.92;5.97;;;;;;;14.10;74.79;96608.16;1828461;77;21069;-84
2021/10/06 06:45:47;;;;;;;9.55;5.95;;;;;;;14.11;75.12;96618.11;1806846;77;21552;-83
2021/10/06 06:48:13;;;;;;;6.75;5.60;;;;;;;14.14;75.60;96615.09;1788548;78;21070;-84
2021/10/06 06:50:39;;;;;;;9.33;6.28;;;;;;;14.19;75.42;96622.36;1783711;79;21078;-84
2021/10/06 06:53:04;;;;;;;7.00;6.30;;;;;;;14.23;75.75;96623.06;1783837;79;21023;-84
2021/10/06 06:55:30;;;;;;;8.50;6.87;;;;;;;14.30;76.07;96630.41;1782869;78;21103;-84
2021/10/06 06:57:56;;;;;;;8.78;6.55;;;;;;;14.32;76.00;96631.04;1783134;80;21090;-84
2021/10/06 07:00:21;;;;;;;10.38;6.22;;;;;;;14.32;76.13;96627.62;1831709;77;21034;-84
2021/10/06 07:02:47;;;;;;;7.70;6.28;;;;;;;14.25;76.13;96627.59;1793736;78;21097;-84
2021/10/06 07:05:13;;;;;;;8.55;6.12;;;;;;;14.26;76.23;96631.01;1816856;77;21136;-84
2021/10/06 07:07:39;;;;;;;8.65;6.22;;;;;;;14.26;76.32;96626.59;1784016;79;21039;-84
2021/10/06 07:10:05;;;;;;;10.28;6.45;;;;;;;14.32;76.47;96630.23;1813660;77;21060;-83
2021/10/06 07:12:31;;;;;;;9.43;6.97;;;;;;;14.32;76.58;96632.84;1806677;77;21085;-83
2021/10/06 07:14:57;;;;;;;6.70;5.95;;;;;;;14.32;76.62;96642.80;1821506;77;21508;-83
2021/10/06 07:17:22;;;;;;;8.30;6.65;;;;;;;14.34;76.86;96642.59;1783485;80;21077;-83
2021/10/06 07:19:48;;;;;;;7.92;6.30;;;;;;;14.35;76.70;96640.29;1790036;79;21035;-83
2021/10/06 07:24:41;;;;;;;7.55;6.55;;;;;;;14.39;76.88;96643.60;1783762;79;21027;-83
2021/10/06 07:27:07;;;;;;;9.98;7.03;;;;;;;14.44;76.87;96648.76;1783369;80;21436;-83
2021/10/06 07:29:33;;;;;;;9.93;6.85;;;;;;;14.41;76.76;96652.05;1781785;80;21042;-83
2021/10/06 07:31:59;;;;;;;8.58;6.55;;;;;;;14.42;76.82;96655.47;1783587;80;21015;-83
2021/10/06 07:34:24;;;;;;;8.55;6.60;;;;;;;14.37;76.98;96652.15;1783175;78;21118;-83
2021/10/06 07:36:50;;;;;;;8.20;5.87;;;;;;;14.37;77.05;96654.77;1783573;80;21161;-83
2021/10/06 07:39:16;;;;;;;7.80;6.22;;;;;;;14.38;77.24;96658.98;1782798;79;21030;-83
2021/10/06 07:41:42;;;;;;;8.45;6.97;;;;;;;14.38;77.21;96667.33;1794117;77;21055;-83
2021/10/06 07:44:08;;;;;;;7.72;6.72;;;;;;;14.38;77.34;96669.44;1811800;77;21047;-83
2021/10/06 07:46:35;;;;;;;7.05;6.35;;;;;;;14.39;77.52;96669.74;1822743;77;21091;-83
2021/10/06 07:49:01;;;;;;;6.67;5.87;;;;;;;14.40;77.61;96672.66;1822906;77;21455;-83
2021/10/06 07:51:26;;;;;;;7.37;5.50;;;;;;;14.42;77.79;96672.46;1792696;77;21023;-83
2021/10/06 07:53:52;;;;;;;9.43;6.87;;;;;;;14.44;77.71;96678.83;1814372;77;21143;-83
2021/10/06 07:56:18;;;;;;;8.33;7.10;;;;;;;14.42;77.60;96682.41;1783815;80;21569;-83
2021/10/06 07:58:44;;;;;;;8.85;7.20;;;;;;;14.39;77.91;96672.36;1782830;79;21547;-83
2021/10/06 08:01:09;;;;;;;9.30;6.90;;;;;;;14.35;77.84;96684.73;1784010;78;21022;-83
2021/10/06 08:03:36;;;;;;;7.40;6.70;;;;;;;14.29;78.16;96684.19;1784287;80;21069;-83
2021/10/06 08:06:01;;;;;;;9.33;6.97;;;;;;;14.26;78.13;96681.47;1784120;78;21085;-83
2021/10/06 08:08:27;;;;;;;7.60;6.35;;;;;;;14.19;75.94;96677.24;1783636;80;21246;-83
2021/10/06 08:10:54;;;;;;;8.95;6.80;;;;;;;14.14;77.19;96672.59;1784356;79;21009;-83
2021/10/06 08:13:21;;;;;;;8.45;6.85;;;;;;;14.06;77.11;96677.50;1812246;77;21521;-83
2021/10/06 08:15:47;;;;;;;8.20;6.97;;;;;;;14.05;77.50;96677.70;1803294;77;21066;-82
2021/10/06 08:18:16;;;;;;;7.22;6.53;;;;;;;14.06;78.08;96679.30;1828962;77;21481;-83
2021/10/06 08:20:41;;;;;;;7.37;6.25;;;;;;;14.04;78.27;96683.92;1809382;77;21399;-83
2021/10/06 08:23:08;;;;;;;8.50;6.45;;;;;;;14.03;78.26;96688.84;1798192;78;21389;-83
2021/10/06 08:25:34;;;;;;;7.85;6.87;;;;;;;14.01;78.42;96690.86;1783834;80;21078;-83
2021/10/06 08:28:00;;;;;;;10.95;6.85;;;;;;;14.01;78.86;96692.16;1783633;80;21054;-83
2021/10/06 08:30:25;;;;;;;9.10;7.95;;;;;;;14.00;78.84;96685.33;1814093;78;21118;-83
2021/10/06 08:32:51;;;;;;;8.55;5.85;;;;;;;13.99;78.64;96685.83;1809301;77;21057;-83
2021/10/06 08:35:17;;;;;;;7.08;6.30;;;;;;;13.99;78.20;96679.77;1795813;78;21117;-83
2021/10/06 08:37:42;;;;;;;7.20;6.03;;;;;;;13.98;78.64;96683.38;1783243;79;21130;-83
2021/10/06 08:40:10;;;;;;;6.92;6.17;;;;;;;14.01;78.56;96686.44;1784415;80;21105;-83
2021/10/06 08:42:36;;;;;;;8.68;7.08;;;;;;;14.03;78.79;96683.63;1784588;79;21007;-83
2021/10/06 08:45:06;;;;;;;9.88;7.60;;;;;;;14.04;79.14;96687.84;1784422;78;21483;-82
2021/10/06 08:47:32;;;;;;;11.80;9.43;;;;;;;14.05;78.67;96686.34;1821534;77;21475;-83
2021/10/06 08:49:58;;;;;;;12.35;10.18;;;;;;;14.08;78.80;96681.22;1785214;77;21216;-83
2021/10/06 08:52:24;;;;;;;11.22;9.05;;;;;;;14.08;79.08;96679.91;1805058;77;21066;-83
2021/10/06 08:54:49;;;;;;;9.90;8.90;;;;;;;14.11;79.02;96679.52;1802478;79;21035;-83
2021/10/06 08:57:16;;;;;;;9.75;7.17;;;;;;;14.15;79.09;96680.73;1819761;76;21454;-83
2021/10/06 08:59:45;;;;;;;9.73;7.90;;;;;;;14.18;79.27;96680.86;1820766;76;21124;-83
2021/10/06 09:02:12;;;;;;;8.75;7.85;;;;;;;14.25;79.62;96677.75;1816997;76;21140;-83
2021/10/06 09:04:42;;;;;;;9.45;7.65;;;;;;;14.28;79.85;96677.35;1813236;77;21107;-83
2021/10/06 09:07:08;;;;;;;6.78;5.60;;;;;;;14.28;79.46;96676.84;1804068;77;21121;-83
2021/10/06 09:09:36;;;;;;;6.20;5.47;;;;;;;14.29;79.30;96676.34;1835475;77;21474;-83
2021/10/06 09:12:04;;;;;;;5.80;5.20;;;;;;;14.25;79.28;96676.45;1828039;77;21075;-83
2021/10/06 09:14:31;;;;;;;6.30;5.60;;;;;;;14.26;79.45;96688.51;1822590;76;21054;-82
2021/10/06 09:17:10;;;;;;;8.03;6.78;;;;;;;14.22;79.75;96682.07;1806394;77;21071;-83
2021/10/06 09:22:22;;;;;;;12.58;7.03;;;;;;;14.17;80.24;96688.40;1834980;77;21046;-83
2021/10/06 09:24:59;;;;;;;7.17;6.00;;;;;;;14.22;79.99;96684.18;1805960;77;20993;-83
2021/10/06 09:27:28;;;;;;;10.95;9.38;;;;;;;14.27;79.96;96694.84;1784871;79;21402;-83
2021/10/06 09:30:00;;;;;;;10.53;7.92;;;;;;;14.28;79.62;96696.95;1782794;80;21445;-83
2021/10/06 09:32:37;;;;;;;10.48;8.73;;;;;;;14.26;79.02;96714.64;1783204;80;21060;-83
2021/10/06 09:35:14;;;;;;;9.23;8.25;;;;;;;14.32;79.96;96712.57;1783021;80;21108;-83
2021/10/06 09:37:46;;;;;;;9.65;6.83;;;;;;;14.36;80.28;96722.43;1783087;80;21151;-83
2021/10/06 09:40:16;;;;;;;6.95;6.17;;;;;;;14.41;80.48;96730.48;1789626;77;21159;-83
2021/10/06 09:42:49;;;;;;;9.98;8.98;;;;;;;14.47;80.50;96730.72;1783266;80;21147;-83
2021/10/06 09:45:36;;;;;;;11.65;10.18;;;;;;;14.55;80.15;96733.16;1782561;80;21430;-83
2021/10/06 09:48:13;;;;;;;11.40;10.25;;;;;;;14.59;80.01;96736.98;1782974;80;21501;-83
2021/10/06 09:50:47;;;;;;;9.70;8.63;;;;;;;14.66;80.29;96743.05;1782938;80;21069;-83
2021/10/06 09:53:17;;;;;;;11.30;10.15;;;;;;;14.60;80.09;96734.67;1787115;78;21166;-82
2021/10/06 09:55:45;;;;;;;10.95;9.35;;;;;;;14.60;80.52;96739.91;1792988;77;21069;-83
2021/10/06 09:58:11;;;;;;;8.23;6.67;;;;;;;14.67;80.52;96742.05;1782786;80;21139;-83
2021/10/06 10:00:40;;;;;;;7.50;6.55;;;;;;;14.63;79.76;96739.50;1782863;80;21434;-83
2021/10/06 10:03:06;;;;;;;8.40;6.62;;;;;;;14.66;79.65;96745.67;1782638;80;21470;-82
2021/10/06 10:05:34;;;;;;;9.35;7.42;;;;;;;14.66;79.43;96740.44;1782887;80;21048;-83
2021/10/06 10:08:02;;;;;;;9.08;8.23;;;;;;;14.60;78.14;96737.28;1783037;80;21100;-83
2021/10/06 10:10:27;;;;;;;9.13;8.23;;;;;;;14.50;77.63;96736.88;1782957;80;21060;-83
2021/10/06 10:12:53;;;;;;;9.58;7.67;;;;;;;14.40;78.00;96739.83;1782771;80;21091;-83
2021/10/06 10:15:20;;;;;;;10.63;7.10;;;;;;;14.35;78.51;96737.81;1801674;77;21119;-83
2021/10/06 10:17:53;;;;;;;7.12;6.42;;;;;;;14.32;78.08;96741.33;1824055;76;21054;-83
2021/10/06 10:20:19;;;;;;;7.55;5.20;;;;;;;14.24;78.07;96736.25;1801902;78;21447;-83
2021/10/06 10:22:57;;;;;;;7.17;6.47;;;;;;;14.14;77.43;96732.69;1807318;79;20980;-83
2021/10/06 10:25:26;;;;;;;9.90;8.13;;;;;;;14.06;77.31;96731.56;1839245;77;21129;-83
2021/10/06 10:30:29;;;;;;;7.42;6.72;;;;;;;13.97;78.64;96730.11;1812523;77;21424;-83
2021/10/06 10:32:55;;;;;;;7.85;7.05;;;;;;;13.98;78.22;96733.02;1778800;77;21031;-83
2021/10/06 10:35:42;;;;;;;8.58;6.45;;;;;;;13.99;78.52;96739.39;1779437;78;21020;-83
2021/10/06 10:38:11;;;;;;;7.53;6.47;;;;;;;14.05;78.88;96735.98;1776545;77;21102;-83
2021/10/06 10:40:50;;;;;;;8.85;7.90;;;;;;;14.14;78.85;96741.83;1776575;78;21052;-83
2021/10/06 10:43:19;;;;;;;9.93;8.90;;;;;;;14.22;79.40;96734.34;1811883;78;21061;-83
2021/10/06 10:46:06;;;;;;;9.78;8.80;;;;;;;14.32;79.36;96735.59;1761889;79;21458;-83
2021/10/06 10:49:02;;;;;;;8.75;7.85;;;;;;;14.40;79.45;96740.63;1822304;77;21482;-82
2021/10/06 10:51:44;;;;;;;8.15;7.35;;;;;;;14.47;79.68;96743.78;1759823;78;21209;-83
2021/10/06 10:54:12;;;;;;;10.53;9.25;;;;;;;14.55;80.35;96744.93;1761867;79;21547;-83
2021/10/06 10:56:49;;;;;;;12.13;9.63;;;;;;;14.63;79.67;96745.53;1773133;78;21059;-83
2021/10/06 10:59:22;;;;;;;11.85;10.23;;;;;;;14.67;79.29;96748.08;1794168;77;21491;-84
2021/10/06 11:01:56;;;;;;;11.57;9.63;;;;;;;14.71;79.78;96745.87;1782977;77;21119;-83
2021/10/06 11:04:36;;;;;;;12.33;10.18;;;;;;;14.65;79.97;96744.06;1809156;77;21446;-83
2021/10/06 11:09:44;;;;;;;10.98;9.93;;;;;;;14.58;80.17;96745.84;1781849;78;21075;-83
2021/10/06 11:14:42;;;;;;;12.37;9.60;;;;;;;14.66;79.84;96750.40;1750483;80;20999;-83
2021/10/06 11:17:15;;;;;;;9.30;8.38;;;;;;;14.68;80.65;96751.50;1734507;80;21090;-83
2021/10/06 11:19:54;;;;;;;12.85;10.45;;;;;;;14.71;80.41;96752.41;1736713;77;21567;-83
2021/10/06 11:22:32;;;;;;;13.58;10.95;;;;;;;14.75;80.15;96745.77;1753583;79;21793;-83
2021/10/06 11:25:01;;;;;;;12.88;11.57;;;;;;;14.79;80.00;96740.44;1775933;79;21445;-82
2021/10/06 11:27:29;;;;;;;13.83;12.00;;;;;;;14.84;80.08;96748.52;1785656;77;21507;-83
2021/10/06 11:29:56;;;;;;;11.53;10.32;;;;;;;14.89;79.97;96747.41;1796489;78;21416;-83
2021/10/06 11:32:22;;;;;;;15.18;11.73;;;;;;;14.91;80.02;96746.70;1832963;77;21134;-83
2021/10/06 11:34:51;;;;;;;14.30;12.80;;;;;;;14.95;80.40;96749.72;1783230;78;21151;-83
2021/10/06 11:37:22;;;;;;;12.98;11.63;;;;;;;15.03;80.38;96745.61;1747415;81;21131;-83
2021/10/06 11:39:47;;;;;;;13.60;11.65;;;;;;;15.10;80.26;96744.30;1772923;79;21142;-83
2021/10/06 11:42:14;;;;;;;14.90;11.50;;;;;;;15.18;80.11;96742.80;1776196;79;21524;-83
2021/10/06 11:44:41;;;;;;;13.03;11.73;;;;;;;15.24;79.94;96744.59;1729183;80;21132;-83
2021/10/06 11:47:14;;;;;;;12.75;11.45;;;;;;;15.29;80.10;96745.63;1737021;80;21650;-83
2021/10/06 11:49:41;;;;;;;13.93;12.13;;;;;;;15.35;80.07;96751.05;1750495;81;21603;-83
2021/10/06 11:52:11;;;;;;;12.33;11.05;;;;;;;15.27;79.71;96746.30;1745922;80;21169;-83
2021/10/06 11:54:37;;;;;;;14.10;10.88;;;;;;;15.20;79.23;96746.82;1763964;79;21112;-83
2021/10/06 11:57:06;;;;;;;12.18;10.98;;;;;;;15.17;79.64;96743.30;1782543;78;21098;-83